Ana Sayfa
METAR-TAF:

METAR-TAF

Havaalanları :

Blytheville Municipal Airport

Blytheville, Arkansas, Amerika Birleşik Devletleri

Enlem: 35-56-20N, Boylam: 089-49-57W, yükseklik: 78 m

Güncel hava durumu gözlemi

Rapor saat 11:53 UTC de 57 dakika önce yapıldı.
Rüzgar güneydan 3 kt
Sıcaklık 26°C
Nem 79%
Basınç 1014 hPa
Görüş mesafesi: 16.1 km
Açık gökyüzü

METAR: KHKA 161153Z AUTO 17003KT 10SM CLR 26/22 A2995 RMK AO2 SLP137 T02610217 10278 20244 51009 $

Saat: 07:50 (12:50 UTC)


TAF: eksik

4.000'den fazla havaalanı için hava durumu gözlemleri ve tahminleri (METAR ve TAF raporları).

Kullanılabilir istasyonlar harita üzerinde sarı ve kırmızı noktalarla gösterilir.

İstasyonun adını görmek için fareyi noktanın üzerinde gezdirin.

Sonrasında hava gözlem ve tahminlerini görmek için tıklayın.

Haritayı değiştirmek için: yaklaştırmak için siyah artı işaretli yeşil düğmeye ve uzaklaştırmak için de eksi işaretli düğmeye hızla tıklayın; bitişik haritalar için yeşil okları kullanın.


METAR-TAF: